Time;durP1;ratioP1;P1;durP2;ratioP2;P2;SDS_P1;SDS_P2;PMS_P1;PMS_P2;Temp;Humidity;BMP_temperature;BMP_pressure;BME280_temperature;BME280_humidity;BME280_pressure;Samples;Min_cycle;Max_cycle;Signal;HPM_P1;HPM_P2
2021/03/13 00:02:02;;;;;;;62.55;31.77;;;;;;;;;;776383;179;919428;-68
2021/03/13 00:04:29;;;;;;;50.47;29.13;;;;;;;;;;781896;179;919078;-69
2021/03/13 00:06:54;;;;;;;38.67;24.90;;;;;;;;;;774848;179;1102497;-68
2021/03/13 00:09:20;;;;;;;40.53;24.43;;;;;;;;;;778264;179;919537;-68
2021/03/13 00:11:46;;;;;;;42.60;23.93;;;;;;;;;;774482;179;1029437;-67
2021/03/13 00:14:12;;;;;;;41.67;26.63;;;;;;;;;;780127;175;918596;-69
2021/03/13 00:16:38;;;;;;;36.22;24.12;;;;;;;;;;776337;179;918653;-68
2021/03/13 00:19:04;;;;;;;55.27;27.97;;;;;;;;;;777469;179;919029;-68
2021/03/13 00:21:29;;;;;;;40.67;23.77;;;;;;;;;;779680;179;958371;-68
2021/03/13 00:23:55;;;;;;;47.77;23.30;;;;;;;;;;776691;179;919295;-68
2021/03/13 00:26:21;;;;;;;45.33;23.47;;;;;;;;;;772991;179;919287;-68
2021/03/13 00:28:47;;;;;;;52.03;23.13;;;;;;;;;;782892;179;918484;-68
2021/03/13 00:31:13;;;;;;;47.93;24.40;;;;;;;;;;778150;178;967411;-68
2021/03/13 00:33:39;;;;;;;54.00;28.73;;;;;;;;;;780975;178;921879;-68
2021/03/13 00:36:05;;;;;;;34.60;21.47;;;;;;;;;;781554;178;931292;-68
2021/03/13 00:38:31;;;;;;;42.23;22.20;;;;;;;;;;781912;178;919021;-68
2021/03/13 00:40:57;;;;;;;34.33;20.00;;;;;;;;;;779799;178;919575;-69
2021/03/13 00:43:23;;;;;;;44.53;24.00;;;;;;;;;;775789;178;906005;-67
2021/03/13 00:45:48;;;;;;;40.67;22.73;;;;;;;;;;776533;179;919587;-68
2021/03/13 00:48:14;;;;;;;38.97;22.37;;;;;;;;;;776366;178;921448;-69
2021/03/13 00:50:40;;;;;;;34.60;20.83;;;;;;;;;;777354;179;928311;-68
2021/03/13 00:53:06;;;;;;;37.47;21.47;;;;;;;;;;781485;179;916942;-68
2021/03/13 00:55:32;;;;;;;37.50;22.30;;;;;;;;;;776135;179;920324;-68
2021/03/13 00:57:58;;;;;;;35.33;21.33;;;;;;;;;;775188;179;920289;-68
2021/03/13 01:00:23;;;;;;;47.03;22.00;;;;;;;;;;783064;179;918726;-67
2021/03/13 01:02:49;;;;;;;43.00;23.40;;;;;;;;;;775614;179;919099;-67
2021/03/13 01:05:16;;;;;;;35.83;20.43;;;;;;;;;;776337;179;920429;-68
2021/03/13 01:07:42;;;;;;;33.93;21.87;;;;;;;;;;779789;179;921129;-69
2021/03/13 01:10:09;;;;;;;32.85;20.73;;;;;;;;;;778039;179;919445;-68
2021/03/13 01:12:35;;;;;;;36.93;23.33;;;;;;;;;;778228;179;917188;-69
2021/03/13 01:15:00;;;;;;;41.00;20.50;;;;;;;;;;771447;179;916759;-68
2021/03/13 01:17:28;;;;;;;37.20;21.60;;;;;;;;;;782170;179;913769;-68
2021/03/13 01:19:54;;;;;;;46.60;23.43;;;;;;;;;;777740;179;916202;-67
2021/03/13 01:22:19;;;;;;;40.75;24.73;;;;;;;;;;778125;179;919223;-68
2021/03/13 01:24:45;;;;;;;38.53;24.40;;;;;;;;;;779504;179;919009;-68
2021/03/13 01:27:11;;;;;;;40.20;23.00;;;;;;;;;;778103;179;918151;-68
2021/03/13 01:29:37;;;;;;;38.88;24.15;;;;;;;;;;773089;179;1021733;-68
2021/03/13 01:32:03;;;;;;;43.63;23.90;;;;;;;;;;781861;179;917122;-68
2021/03/13 01:34:29;;;;;;;88.13;43.93;;;;;;;;;;779009;179;902597;-68
2021/03/13 01:36:55;;;;;;;55.42;27.58;;;;;;;;;;776677;179;917597;-68
2021/03/13 01:39:21;;;;;;;239.20;92.50;;;;;;;;;;773621;179;918713;-67
2021/03/13 01:41:46;;;;;;;59.25;28.83;;;;;;;;;;775768;179;919065;-68
2021/03/13 01:44:12;;;;;;;44.70;26.10;;;;;;;;;;777929;177;921498;-68
2021/03/13 01:46:38;;;;;;;38.90;22.30;;;;;;;;;;778004;178;919238;-68
2021/03/13 01:49:04;;;;;;;60.37;34.50;;;;;;;;;;781144;178;919419;-68
2021/03/13 01:51:30;;;;;;;59.73;29.10;;;;;;;;;;780077;178;919060;-68
2021/03/13 01:53:57;;;;;;;57.97;30.50;;;;;;;;;;777056;178;919624;-70
2021/03/13 01:56:23;;;;;;;51.87;27.10;;;;;;;;;;782168;178;918489;-70
2021/03/13 01:58:48;;;;;;;38.47;22.98;;;;;;;;;;778214;178;919254;-69
2021/03/13 02:01:14;;;;;;;70.03;36.07;;;;;;;;;;769751;178;1589719;-69
2021/03/13 02:03:40;;;;;;;104.87;49.40;;;;;;;;;;781566;179;918729;-68
2021/03/13 02:06:06;;;;;;;71.57;37.50;;;;;;;;;;776072;179;918820;-68
2021/03/13 02:08:38;;;;;;;75.60;35.37;;;;;;;;;;777718;179;919221;-69
2021/03/13 02:11:07;;;;;;;76.50;38.07;;;;;;;;;;773632;179;1022392;-68
2021/03/13 02:13:32;;;;;;;60.13;32.30;;;;;;;;;;782299;179;918725;-68
2021/03/13 02:15:58;;;;;;;70.33;37.93;;;;;;;;;;776125;179;918607;-68
2021/03/13 02:18:25;;;;;;;67.53;32.53;;;;;;;;;;777967;179;1019868;-69
2021/03/13 02:20:57;;;;;;;45.03;20.10;;;;;;;;;;779515;179;860318;-69
2021/03/13 02:23:22;;;;;;;64.77;30.37;;;;;;;;;;775270;179;918656;-68
2021/03/13 02:26:09;;;;;;;66.87;33.23;;;;;;;;;;774268;179;918531;-69
2021/03/13 02:28:36;;;;;;;61.87;35.07;;;;;;;;;;776119;179;920912;-70
2021/03/13 02:31:02;;;;;;;61.17;28.40;;;;;;;;;;775850;179;918506;-68
2021/03/13 02:33:27;;;;;;;57.23;30.80;;;;;;;;;;782259;179;916264;-68
2021/03/13 02:35:56;;;;;;;55.80;29.23;;;;;;;;;;774397;179;916955;-67
2021/03/13 02:38:21;;;;;;;53.73;28.77;;;;;;;;;;776284;179;918808;-69
2021/03/13 02:40:47;;;;;;;59.90;32.33;;;;;;;;;;773377;179;972755;-71
2021/03/13 02:43:12;;;;;;;60.90;28.75;;;;;;;;;;783429;179;918491;-68
2021/03/13 02:45:38;;;;;;;49.80;26.53;;;;;;;;;;779156;179;919256;-68
2021/03/13 02:48:05;;;;;;;55.80;28.57;;;;;;;;;;773539;179;919141;-68
2021/03/13 02:50:30;;;;;;;53.23;24.37;;;;;;;;;;782851;179;918734;-68
2021/03/13 02:52:56;;;;;;;27.50;17.07;;;;;;;;;;775238;179;919469;-68
2021/03/13 02:55:22;;;;;;;21.43;15.30;;;;;;;;;;779615;178;919775;-69
2021/03/13 02:57:48;;;;;;;28.87;16.70;;;;;;;;;;781650;178;918562;-69
2021/03/13 03:00:15;;;;;;;25.03;13.60;;;;;;;;;;778672;178;919263;-68
2021/03/13 03:02:41;;;;;;;21.92;12.05;;;;;;;;;;775517;178;919063;-69
2021/03/13 03:05:07;;;;;;;24.50;13.30;;;;;;;;;;777799;178;919296;-68
2021/03/13 03:07:33;;;;;;;23.50;12.83;;;;;;;;;;775255;175;919215;-68
2021/03/13 03:09:59;;;;;;;20.93;14.40;;;;;;;;;;779474;178;919559;-68
2021/03/13 03:12:24;;;;;;;22.77;14.10;;;;;;;;;;775755;178;934439;-68
2021/03/13 03:14:50;;;;;;;25.53;17.00;;;;;;;;;;782931;179;920247;-68
2021/03/13 03:17:16;;;;;;;25.37;16.40;;;;;;;;;;771349;179;1336076;-68
2021/03/13 03:19:42;;;;;;;24.97;14.17;;;;;;;;;;778308;179;918977;-72
2021/03/13 03:22:08;;;;;;;23.00;13.33;;;;;;;;;;783143;179;919086;-69
2021/03/13 03:24:34;;;;;;;15.77;7.90;;;;;;;;;;774034;179;1615648;-68
2021/03/13 03:26:59;;;;;;;10.57;6.03;;;;;;;;;;778236;179;919430;-68
2021/03/13 03:29:25;;;;;;;9.50;5.33;;;;;;;;;;780176;179;919296;-68
2021/03/13 03:31:51;;;;;;;9.43;6.27;;;;;;;;;;778448;179;919021;-68
2021/03/13 03:34:17;;;;;;;13.90;6.23;;;;;;;;;;775938;179;943036;-68
2021/03/13 03:36:43;;;;;;;7.90;5.20;;;;;;;;;;776803;179;919150;-68
2021/03/13 03:39:09;;;;;;;12.47;4.33;;;;;;;;;;768281;182;918102;-72
2021/03/13 03:41:34;;;;;;;9.17;4.00;;;;;;;;;;776830;179;929696;-69
2021/03/13 03:44:00;;;;;;;15.97;5.67;;;;;;;;;;774631;179;934708;-69
2021/03/13 03:46:26;;;;;;;8.90;3.23;;;;;;;;;;782638;179;918866;-68
2021/03/13 03:48:52;;;;;;;8.80;2.97;;;;;;;;;;775813;179;918463;-69
2021/03/13 03:51:18;;;;;;;4.17;2.30;;;;;;;;;;776905;179;934123;-68
2021/03/13 03:53:44;;;;;;;7.50;2.93;;;;;;;;;;779208;179;919477;-68
2021/03/13 03:56:10;;;;;;;8.77;3.40;;;;;;;;;;775785;179;1016294;-69
2021/03/13 03:58:35;;;;;;;4.03;2.20;;;;;;;;;;776029;179;1025999;-69
2021/03/13 04:01:01;;;;;;;5.30;3.25;;;;;;;;;;779804;179;919457;-68
2021/03/13 04:03:27;;;;;;;4.27;2.53;;;;;;;;;;778091;179;919061;-68
2021/03/13 04:05:53;;;;;;;4.50;2.10;;;;;;;;;;776587;178;921306;-69
2021/03/13 04:08:19;;;;;;;5.13;2.60;;;;;;;;;;778820;178;919093;-68
2021/03/13 04:10:45;;;;;;;5.57;2.40;;;;;;;;;;768721;182;919158;-67
2021/03/13 04:13:11;;;;;;;4.57;3.20;;;;;;;;;;777701;178;1022458;-68
2021/03/13 04:15:36;;;;;;;5.55;3.00;;;;;;;;;;776385;178;920043;-68
2021/03/13 04:18:02;;;;;;;8.10;2.90;;;;;;;;;;783593;178;918681;-67
2021/03/13 04:20:28;;;;;;;5.10;2.90;;;;;;;;;;775877;178;929309;-66
2021/03/13 04:22:54;;;;;;;5.15;3.30;;;;;;;;;;778533;178;920641;-67
2021/03/13 04:25:20;;;;;;;4.20;2.37;;;;;;;;;;780576;178;919375;-66
2021/03/13 04:27:46;;;;;;;7.33;2.50;;;;;;;;;;778197;179;918345;-69
2021/03/13 04:30:13;;;;;;;3.55;2.55;;;;;;;;;;774129;179;1052831;-66
2021/03/13 04:32:39;;;;;;;5.43;2.12;;;;;;;;;;784108;179;920055;-66
2021/03/13 04:35:06;;;;;;;5.27;2.50;;;;;;;;;;776698;179;918764;-68
2021/03/13 04:37:32;;;;;;;3.10;2.10;;;;;;;;;;775273;179;920891;-66
2021/03/13 04:39:58;;;;;;;5.37;2.43;;;;;;;;;;778443;179;922095;-66
2021/03/13 04:42:23;;;;;;;4.30;2.23;;;;;;;;;;779700;179;913256;-65
2021/03/13 04:44:49;;;;;;;4.07;2.60;;;;;;;;;;776852;179;920385;-64
2021/03/13 04:47:15;;;;;;;8.70;3.08;;;;;;;;;;772238;179;916685;-64
2021/03/13 04:49:41;;;;;;;3.40;2.30;;;;;;;;;;783859;179;917034;-66
2021/03/13 04:52:07;;;;;;;5.23;2.07;;;;;;;;;;775169;179;1192617;-66
2021/03/13 04:54:33;;;;;;;5.10;2.58;;;;;;;;;;777773;179;915560;-66
2021/03/13 04:56:58;;;;;;;4.77;2.40;;;;;;;;;;780164;179;919354;-65
2021/03/13 04:59:24;;;;;;;4.17;3.10;;;;;;;;;;778492;179;918975;-65
2021/03/13 05:01:50;;;;;;;7.63;3.70;;;;;;;;;;774659;179;919794;-64
2021/03/13 05:04:16;;;;;;;5.23;2.73;;;;;;;;;;782402;179;918931;-65
2021/03/13 05:06:42;;;;;;;6.33;3.63;;;;;;;;;;764309;179;919364;-65
2021/03/13 05:09:08;;;;;;;8.03;4.00;;;;;;;;;;776469;179;919204;-64
2021/03/13 05:11:35;;;;;;;5.77;3.60;;;;;;;;;;774741;179;922082;-67
2021/03/13 05:14:01;;;;;;;4.07;2.60;;;;;;;;;;783439;179;919825;-66
2021/03/13 05:16:27;;;;;;;5.80;3.10;;;;;;;;;;778955;179;914749;-66
2021/03/13 05:18:52;;;;;;;3.90;2.57;;;;;;;;;;777770;177;919322;-65
2021/03/13 05:21:18;;;;;;;3.27;2.50;;;;;;;;;;784388;178;919346;-66
2021/03/13 05:23:44;;;;;;;5.27;2.70;;;;;;;;;;777085;178;918294;-64
2021/03/13 05:26:10;;;;;;;6.03;2.90;;;;;;;;;;779475;178;918263;-64
2021/03/13 05:28:36;;;;;;;7.97;3.90;;;;;;;;;;780604;178;918005;-65
2021/03/13 05:31:02;;;;;;;9.20;3.70;;;;;;;;;;777284;178;919082;-64
2021/03/13 05:33:27;;;;;;;5.57;2.97;;;;;;;;;;770444;178;1910315;-64
2021/03/13 05:35:53;;;;;;;5.80;3.63;;;;;;;;;;780036;179;919378;-65
2021/03/13 05:38:19;;;;;;;6.13;4.20;;;;;;;;;;774878;175;947375;-66
2021/03/13 05:40:45;;;;;;;6.90;3.80;;;;;;;;;;779011;179;919165;-65
2021/03/13 05:43:11;;;;;;;4.47;3.47;;;;;;;;;;776149;179;919530;-65
2021/03/13 05:45:37;;;;;;;4.27;2.83;;;;;;;;;;783924;179;920528;-64
2021/03/13 05:48:03;;;;;;;7.10;2.90;;;;;;;;;;776546;179;919036;-66
2021/03/13 05:50:29;;;;;;;5.13;2.90;;;;;;;;;;779312;179;920041;-65
2021/03/13 05:52:55;;;;;;;5.43;3.17;;;;;;;;;;781932;179;953226;-65
2021/03/13 05:55:21;;;;;;;5.80;3.37;;;;;;;;;;774291;179;1277176;-64
2021/03/13 05:57:46;;;;;;;6.75;3.62;;;;;;;;;;776312;179;922836;-66
2021/03/13 06:00:13;;;;;;;5.50;3.20;;;;;;;;;;777417;179;883763;-65
2021/03/13 06:02:38;;;;;;;5.77;2.67;;;;;;;;;;778681;179;919464;-66
2021/03/13 06:05:06;;;;;;;6.27;3.07;;;;;;;;;;775245;179;918726;-64
2021/03/13 06:07:31;;;;;;;9.93;3.87;;;;;;;;;;776154;179;1021691;-64
2021/03/13 06:09:57;;;;;;;6.23;3.40;;;;;;;;;;770175;182;623734;-65
2021/03/13 06:12:22;;;;;;;11.90;3.57;;;;;;;;;;778437;179;920643;-64
2021/03/13 06:14:49;;;;;;;6.65;3.20;;;;;;;;;;774337;179;920385;-63
2021/03/13 06:17:15;;;;;;;10.23;3.97;;;;;;;;;;781361;179;873366;-63
2021/03/13 06:19:46;;;;;;;7.40;3.77;;;;;;;;;;768249;179;2142122;-63
2021/03/13 06:22:12;;;;;;;4.30;2.83;;;;;;;;;;775807;179;1053155;-64
2021/03/13 06:24:37;;;;;;;5.80;3.70;;;;;;;;;;772734;179;919080;-64
2021/03/13 06:27:03;;;;;;;7.73;3.60;;;;;;;;;;778066;179;911385;-65
2021/03/13 06:29:31;;;;;;;7.90;3.70;;;;;;;;;;780260;178;914543;-70
2021/03/13 06:32:06;;;;;;;9.02;3.92;;;;;;;;;;781714;178;914161;-65
2021/03/13 06:34:31;;;;;;;4.13;3.53;;;;;;;;;;784062;178;919004;-65
2021/03/13 06:37:03;;;;;;;4.50;2.57;;;;;;;;;;778544;178;919008;-62
2021/03/13 06:39:35;;;;;;;7.10;3.93;;;;;;;;;;778272;179;919214;-65
2021/03/13 06:42:01;;;;;;;6.30;3.40;;;;;;;;;;777310;178;625356;-64
2021/03/13 06:44:27;;;;;;;8.93;3.93;;;;;;;;;;777668;179;908480;-65
2021/03/13 06:46:52;;;;;;;7.80;3.23;;;;;;;;;;773192;179;915829;-64
2021/03/13 06:49:18;;;;;;;7.03;3.50;;;;;;;;;;779777;179;919406;-64
2021/03/13 06:51:44;;;;;;;7.22;3.85;;;;;;;;;;773947;179;918305;-62
2021/03/13 06:54:11;;;;;;;7.13;3.80;;;;;;;;;;778865;176;947333;-65
2021/03/13 06:56:41;;;;;;;8.63;3.70;;;;;;;;;;772387;179;918154;-64
2021/03/13 06:59:12;;;;;;;10.57;4.60;;;;;;;;;;776363;179;934257;-63
2021/03/13 07:01:38;;;;;;;7.80;4.20;;;;;;;;;;781096;179;816298;-64
2021/03/13 07:04:04;;;;;;;8.53;4.10;;;;;;;;;;782594;179;629439;-64
2021/03/13 07:06:30;;;;;;;9.20;4.40;;;;;;;;;;780055;179;617530;-63
2021/03/13 07:08:56;;;;;;;8.83;4.37;;;;;;;;;;779714;179;633928;-63
2021/03/13 07:11:24;;;;;;;7.03;4.33;;;;;;;;;;782236;179;625955;-64
2021/03/13 07:13:49;;;;;;;8.10;5.10;;;;;;;;;;781380;179;624680;-65
2021/03/13 07:16:27;;;;;;;7.47;4.20;;;;;;;;;;780523;179;635040;-64
2021/03/13 07:18:56;;;;;;;12.20;5.97;;;;;;;;;;782265;179;630522;-65
2021/03/13 07:21:22;;;;;;;19.40;6.23;;;;;;;;;;785979;179;621196;-66
2021/03/13 07:23:49;;;;;;;8.60;5.30;;;;;;;;;;745123;179;5603632;-65
2021/03/13 07:26:15;;;;;;;7.63;4.03;;;;;;;;;;781991;179;629096;-65
2021/03/13 07:28:40;;;;;;;9.30;4.63;;;;;;;;;;782788;179;650730;-65
2021/03/13 07:31:06;;;;;;;10.88;4.78;;;;;;;;;;782847;179;630850;-65
2021/03/13 07:33:32;;;;;;;6.23;4.20;;;;;;;;;;779312;179;619512;-65
2021/03/13 07:35:58;;;;;;;7.80;4.23;;;;;;;;;;782103;179;639457;-65
2021/03/13 07:38:24;;;;;;;12.53;3.50;;;;;;;;;;770436;182;626278;-64
2021/03/13 07:40:50;;;;;;;7.97;3.70;;;;;;;;;;779637;178;1016248;-64
2021/03/13 07:43:16;;;;;;;10.83;4.03;;;;;;;;;;776655;178;1407850;-65
2021/03/13 07:45:42;;;;;;;9.87;4.23;;;;;;;;;;787695;178;634093;-66
2021/03/13 07:48:08;;;;;;;9.20;4.10;;;;;;;;;;781305;178;714274;-65
2021/03/13 07:50:34;;;;;;;8.23;4.00;;;;;;;;;;783703;178;623859;-65
2021/03/13 07:53:00;;;;;;;7.47;4.20;;;;;;;;;;783141;178;624007;-65
2021/03/13 07:55:26;;;;;;;9.90;4.40;;;;;;;;;;782253;178;634338;-65
2021/03/13 07:57:55;;;;;;;6.35;3.80;;;;;;;;;;782074;178;633897;-66
2021/03/13 08:00:27;;;;;;;7.80;4.20;;;;;;;;;;779800;179;632341;-66
2021/03/13 08:02:53;;;;;;;5.13;2.90;;;;;;;;;;771700;182;674553;-66
2021/03/13 08:05:19;;;;;;;9.67;2.80;;;;;;;;;;781939;179;612712;-64
2021/03/13 08:07:50;;;;;;;3.83;2.90;;;;;;;;;;783177;179;651574;-65
2021/03/13 08:10:21;;;;;;;8.50;2.97;;;;;;;;;;778858;179;624393;-64
2021/03/13 08:12:47;;;;;;;12.53;3.03;;;;;;;;;;781590;177;750060;-65
2021/03/13 08:15:13;;;;;;;7.13;2.63;;;;;;;;;;780956;179;625593;-66
2021/03/13 08:17:39;;;;;;;11.30;3.03;;;;;;;;;;780823;179;634179;-64
2021/03/13 08:20:05;;;;;;;11.27;3.83;;;;;;;;;;781198;179;638757;-64
2021/03/13 08:22:30;;;;;;;5.12;3.08;;;;;;;;;;781067;179;639578;-66
2021/03/13 08:24:56;;;;;;;7.27;3.80;;;;;;;;;;778552;179;634844;-65
2021/03/13 08:27:28;;;;;;;8.50;4.90;;;;;;;;;;784805;179;618882;-64
2021/03/13 08:29:54;;;;;;;6.47;3.97;;;;;;;;;;774808;182;638439;-64
2021/03/13 08:32:26;;;;;;;9.60;4.93;;;;;;;;;;782471;179;625081;-65
2021/03/13 08:34:51;;;;;;;7.77;4.20;;;;;;;;;;779795;179;626165;-65
2021/03/13 08:37:17;;;;;;;7.17;4.80;;;;;;;;;;783612;179;620817;-70
2021/03/13 08:39:43;;;;;;;10.93;5.30;;;;;;;;;;781234;179;630189;-64
2021/03/13 08:42:09;;;;;;;8.30;3.40;;;;;;;;;;783174;179;614371;-65
2021/03/13 08:44:35;;;;;;;10.23;4.60;;;;;;;;;;783016;179;635910;-64
2021/03/13 08:47:03;;;;;;;9.05;2.80;;;;;;;;;;782776;179;618368;-65
2021/03/13 08:49:45;;;;;;;7.70;3.70;;;;;;;;;;781292;179;638065;-65
2021/03/13 08:52:24;;;;;;;4.63;3.20;;;;;;;;;;779055;178;725106;-64
2021/03/13 08:54:50;;;;;;;6.63;3.30;;;;;;;;;;784152;178;640290;-64
2021/03/13 08:57:22;;;;;;;4.90;2.73;;;;;;;;;;777810;179;637979;-64
2021/03/13 09:00:00;;;;;;;5.73;2.50;;;;;;;;;;786631;178;623067;-64
2021/03/13 09:02:28;;;;;;;5.63;2.50;;;;;;;;;;775659;182;637214;-64
2021/03/13 09:04:52;;;;;;;4.50;2.70;;;;;;;;;;783839;178;652580;-64
2021/03/13 09:07:18;;;;;;;5.03;3.10;;;;;;;;;;781242;178;625664;-64
2021/03/13 09:09:44;;;;;;;8.57;3.20;;;;;;;;;;786568;178;620190;-64
2021/03/13 09:12:11;;;;;;;7.00;3.30;;;;;;;;;;769139;179;2312278;-65
2021/03/13 09:14:36;;;;;;;4.10;2.60;;;;;;;;;;783296;179;620535;-65
2021/03/13 09:17:12;;;;;;;3.50;2.00;;;;;;;;;;779640;179;649337;-63
2021/03/13 09:19:38;;;;;;;7.90;2.53;;;;;;;;;;777577;180;625437;-64
2021/03/13 09:22:06;;;;;;;5.70;2.87;;;;;;;;;;780257;179;633190;-64
2021/03/13 09:24:32;;;;;;;6.40;3.30;;;;;;;;;;781490;179;636472;-64
2021/03/13 09:26:58;;;;;;;4.07;2.57;;;;;;;;;;775036;179;1283279;-64
2021/03/13 09:29:40;;;;;;;7.40;2.73;;;;;;;;;;782782;175;625612;-63
2021/03/13 09:32:05;;;;;;;5.10;2.40;;;;;;;;;;778846;179;637533;-64
2021/03/13 09:34:32;;;;;;;5.53;3.07;;;;;;;;;;782727;179;630818;-64
2021/03/13 09:36:58;;;;;;;5.50;2.20;;;;;;;;;;779470;179;621150;-66
2021/03/13 09:39:24;;;;;;;5.83;2.50;;;;;;;;;;784906;179;626204;-64
2021/03/13 09:41:58;;;;;;;7.10;3.17;;;;;;;;;;780115;179;644376;-65
2021/03/13 09:44:30;;;;;;;5.10;2.70;;;;;;;;;;780008;179;624539;-64
2021/03/13 09:46:56;;;;;;;4.47;1.90;;;;;;;;;;779067;179;650809;-64
2021/03/13 09:49:22;;;;;;;4.10;1.93;;;;;;;;;;781186;179;627146;-64
2021/03/13 09:51:48;;;;;;;5.80;3.13;;;;;;;;;;780916;179;632155;-63
2021/03/13 09:54:13;;;;;;;4.37;2.70;;;;;;;;;;779009;179;629662;-63
2021/03/13 09:56:39;;;;;;;5.77;2.70;;;;;;;;;;785150;179;633176;-64
2021/03/13 09:59:05;;;;;;;4.53;2.80;;;;;;;;;;780417;179;678156;-64
2021/03/13 10:01:31;;;;;;;3.97;2.50;;;;;;;;;;782041;179;662072;-66
2021/03/13 10:03:57;;;;;;;4.43;2.53;;;;;;;;;;776020;179;674663;-63
2021/03/13 10:06:23;;;;;;;4.40;2.97;;;;;;;;;;779470;179;631990;-63
2021/03/13 10:08:49;;;;;;;4.20;2.63;;;;;;;;;;780611;178;639146;-64
2021/03/13 10:11:15;;;;;;;6.83;3.10;;;;;;;;;;782982;178;632924;-66
2021/03/13 10:13:40;;;;;;;4.50;2.50;;;;;;;;;;784345;178;639371;-63
2021/03/13 10:16:07;;;;;;;4.43;2.87;;;;;;;;;;783797;178;639805;-64
2021/03/13 10:18:33;;;;;;;8.83;2.30;;;;;;;;;;780833;178;634501;-66
2021/03/13 10:21:00;;;;;;;6.03;2.77;;;;;;;;;;785501;178;638808;-64
2021/03/13 10:23:29;;;;;;;5.50;2.67;;;;;;;;;;780610;179;645182;-64
2021/03/13 10:25:56;;;;;;;5.83;2.70;;;;;;;;;;778407;179;656361;-64
2021/03/13 10:28:25;;;;;;;4.10;2.40;;;;;;;;;;780844;179;629361;-64
2021/03/13 10:30:51;;;;;;;4.40;2.17;;;;;;;;;;783208;179;622061;-64
2021/03/13 10:33:17;;;;;;;3.67;2.27;;;;;;;;;;783558;179;625052;-64
2021/03/13 10:35:42;;;;;;;5.90;2.97;;;;;;;;;;776800;179;629300;-65
2021/03/13 10:38:13;;;;;;;8.00;2.83;;;;;;;;;;785092;179;626578;-64
2021/03/13 10:40:37;;;;;;;7.53;3.60;;;;;;;;;;757842;182;623845;-64
2021/03/13 10:43:08;;;;;;;9.83;3.00;;;;;;;;;;779930;179;841928;-64
2021/03/13 10:45:34;;;;;;;4.40;3.07;;;;;;;;;;778453;179;624928;-64
2021/03/13 10:48:04;;;;;;;11.80;3.77;;;;;;;;;;786331;179;629638;-64
2021/03/13 10:50:30;;;;;;;5.47;3.37;;;;;;;;;;776869;179;684593;-64
2021/03/13 10:52:56;;;;;;;11.47;5.50;;;;;;;;;;781226;179;627836;-64
2021/03/13 10:55:21;;;;;;;6.07;3.07;;;;;;;;;;779409;179;919396;-64
2021/03/13 10:57:53;;;;;;;5.83;3.40;;;;;;;;;;776156;179;919208;-63
2021/03/13 11:00:19;;;;;;;5.60;2.73;;;;;;;;;;773917;179;1312420;-65
2021/03/13 11:02:45;;;;;;;5.40;2.60;;;;;;;;;;777562;179;919262;-66
2021/03/13 11:05:12;;;;;;;5.10;2.90;;;;;;;;;;781122;179;918872;-66
2021/03/13 11:07:37;;;;;;;4.67;3.10;;;;;;;;;;778285;179;919145;-63
2021/03/13 11:10:04;;;;;;;4.10;2.73;;;;;;;;;;777636;179;971409;-64
2021/03/13 11:12:30;;;;;;;3.93;2.13;;;;;;;;;;780004;179;854888;-64
2021/03/13 11:14:55;;;;;;;5.33;3.07;;;;;;;;;;778366;177;925032;-64
2021/03/13 11:17:22;;;;;;;7.40;2.03;;;;;;;;;;777204;178;919703;-64
2021/03/13 11:19:47;;;;;;;4.47;2.70;;;;;;;;;;778647;178;919316;-64
2021/03/13 11:22:13;;;;;;;3.60;2.17;;;;;;;;;;768419;182;918261;-64
2021/03/13 11:24:39;;;;;;;4.00;2.37;;;;;;;;;;784237;178;623765;-64
2021/03/13 11:27:05;;;;;;;5.30;2.40;;;;;;;;;;778718;178;695290;-64
2021/03/13 11:29:31;;;;;;;3.37;1.83;;;;;;;;;;785577;178;631444;-64
2021/03/13 11:31:57;;;;;;;6.03;2.73;;;;;;;;;;780862;178;617857;-65
2021/03/13 11:34:23;;;;;;;8.97;3.80;;;;;;;;;;784082;178;627852;-65
2021/03/13 11:36:49;;;;;;;4.90;1.90;;;;;;;;;;782544;179;674087;-63
2021/03/13 11:39:15;;;;;;;5.67;2.20;;;;;;;;;;779094;179;915296;-63
2021/03/13 11:41:41;;;;;;;3.77;2.17;;;;;;;;;;772361;179;1031641;-67
2021/03/13 11:44:07;;;;;;;3.45;1.83;;;;;;;;;;782834;179;944714;-64
2021/03/13 11:46:33;;;;;;;5.57;2.43;;;;;;;;;;778558;179;944030;-64
2021/03/13 11:48:58;;;;;;;2.60;1.60;;;;;;;;;;776586;179;922124;-64
2021/03/13 11:51:24;;;;;;;6.30;2.80;;;;;;;;;;777469;179;919584;-64
2021/03/13 11:53:50;;;;;;;4.60;2.70;;;;;;;;;;780983;179;918268;-65
2021/03/13 11:56:16;;;;;;;4.40;1.80;;;;;;;;;;777261;179;918976;-65
2021/03/13 11:58:42;;;;;;;3.25;1.60;;;;;;;;;;774541;179;918572;-65
2021/03/13 12:01:08;;;;;;;3.13;1.77;;;;;;;;;;782747;179;919374;-66
2021/03/13 12:03:33;;;;;;;3.33;2.20;;;;;;;;;;775129;179;917823;-65
2021/03/13 12:05:59;;;;;;;5.20;2.40;;;;;;;;;;780461;179;816862;-65
2021/03/13 12:08:25;;;;;;;3.83;2.23;;;;;;;;;;774713;179;1724774;-65
2021/03/13 12:10:51;;;;;;;3.95;1.70;;;;;;;;;;777694;179;923096;-64
2021/03/13 12:13:17;;;;;;;3.43;1.67;;;;;;;;;;771618;179;920197;-64
2021/03/13 12:15:43;;;;;;;4.30;1.53;;;;;;;;;;781254;179;917779;-65
2021/03/13 12:18:09;;;;;;;2.67;1.40;;;;;;;;;;775216;179;1022015;-65
2021/03/13 12:20:35;;;;;;;2.45;1.33;;;;;;;;;;774171;179;1164821;-66
2021/03/13 12:23:03;;;;;;;2.30;1.20;;;;;;;;;;774467;179;920846;-63
2021/03/13 12:25:27;;;;;;;6.00;1.20;;;;;;;;;;778647;179;919295;-63
2021/03/13 12:27:53;;;;;;;3.17;1.50;;;;;;;;;;781916;178;919524;-64
2021/03/13 12:30:19;;;;;;;3.97;1.13;;;;;;;;;;778493;178;919123;-64
2021/03/13 12:32:45;;;;;;;5.60;1.43;;;;;;;;;;784204;178;952724;-66
2021/03/13 12:35:11;;;;;;;2.67;1.37;;;;;;;;;;776855;178;945654;-64
2021/03/13 12:37:37;;;;;;;2.92;1.27;;;;;;;;;;779852;178;922436;-64
2021/03/13 12:40:04;;;;;;;3.37;1.40;;;;;;;;;;782346;178;920155;-64
2021/03/13 12:42:30;;;;;;;3.77;1.30;;;;;;;;;;776922;178;931039;-65
2021/03/13 12:44:56;;;;;;;7.72;1.50;;;;;;;;;;774539;178;939037;-64
2021/03/13 12:47:22;;;;;;;4.73;1.70;;;;;;;;;;778681;179;919435;-67
2021/03/13 12:49:51;;;;;;;5.62;1.95;;;;;;;;;;782117;175;918069;-66
2021/03/13 12:52:17;;;;;;;3.97;1.75;;;;;;;;;;772988;179;919540;-64
2021/03/13 12:54:43;;;;;;;4.43;1.90;;;;;;;;;;775889;179;918872;-65
2021/03/13 12:57:09;;;;;;;4.10;1.80;;;;;;;;;;783503;179;920039;-64
2021/03/13 12:59:37;;;;;;;4.07;1.80;;;;;;;;;;777679;179;948756;-64
2021/03/13 13:02:03;;;;;;;4.00;2.10;;;;;;;;;;779944;179;863061;-64
2021/03/13 13:04:30;;;;;;;3.00;1.30;;;;;;;;;;778956;179;915006;-62
2021/03/13 13:06:55;;;;;;;2.97;1.77;;;;;;;;;;772224;179;913723;-64
2021/03/13 13:09:20;;;;;;;3.33;2.10;;;;;;;;;;779155;179;914250;-64
2021/03/13 13:11:46;;;;;;;2.10;1.23;;;;;;;;;;773038;179;915794;-64
2021/03/13 13:14:12;;;;;;;5.63;1.40;;;;;;;;;;782593;179;923213;-64
2021/03/13 13:16:38;;;;;;;3.70;1.77;;;;;;;;;;774198;179;1191058;-64
2021/03/13 13:19:04;;;;;;;2.80;1.20;;;;;;;;;;774891;179;1021187;-65
2021/03/13 13:21:30;;;;;;;1.90;1.00;;;;;;;;;;779433;179;897652;-65
2021/03/13 13:23:56;;;;;;;4.30;1.60;;;;;;;;;;777651;179;894085;-64
2021/03/13 13:26:21;;;;;;;6.05;1.52;;;;;;;;;;773896;179;918669;-64
2021/03/13 13:28:47;;;;;;;7.97;2.03;;;;;;;;;;780657;179;918482;-64
2021/03/13 13:31:13;;;;;;;3.67;1.60;;;;;;;;;;774128;179;984612;-64
2021/03/13 13:33:40;;;;;;;11.80;2.23;;;;;;;;;;777442;179;919746;-66
2021/03/13 13:36:08;;;;;;;4.07;1.80;;;;;;;;;;779693;179;919494;-70
2021/03/13 13:38:34;;;;;;;2.20;1.27;;;;;;;;;;776062;181;920266;-65
2021/03/13 13:41:03;;;;;;;6.33;1.60;;;;;;;;;;778798;178;1022584;-66
2021/03/13 13:43:26;;;;;;;5.78;1.77;;;;;;;;;;775971;178;918644;-64
2021/03/13 13:45:53;;;;;;;3.30;1.50;;;;;;;;;;785231;178;918978;-66
2021/03/13 13:48:19;;;;;;;3.53;1.90;;;;;;;;;;777801;178;919336;-65
2021/03/13 13:50:46;;;;;;;3.73;1.87;;;;;;;;;;777813;178;922891;-65
2021/03/13 13:53:11;;;;;;;4.00;1.83;;;;;;;;;;780040;178;920487;-65
2021/03/13 13:55:39;;;;;;;2.57;1.43;;;;;;;;;;780924;178;910105;-65
2021/03/13 13:58:04;;;;;;;4.33;1.93;;;;;;;;;;762796;179;3771660;-65
2021/03/13 14:00:30;;;;;;;3.07;1.70;;;;;;;;;;777758;179;923533;-65
2021/03/13 14:02:56;;;;;;;2.77;1.57;;;;;;;;;;767305;182;917148;-64
2021/03/13 14:05:21;;;;;;;2.07;1.20;;;;;;;;;;778598;179;915382;-64
2021/03/13 14:07:48;;;;;;;4.80;1.60;;;;;;;;;;776615;179;916967;-65
2021/03/13 14:10:13;;;;;;;2.70;1.50;;;;;;;;;;785019;179;891169;-65
2021/03/13 14:12:39;;;;;;;3.87;2.20;;;;;;;;;;774745;179;920274;-65
2021/03/13 14:15:06;;;;;;;11.80;2.60;;;;;;;;;;777172;179;919514;-65
2021/03/13 14:17:31;;;;;;;3.57;2.20;;;;;;;;;;784776;179;919736;-65